Time;durP1;ratioP1;P1;durP2;ratioP2;P2;SDS_P1;SDS_P2;PMS_P1;PMS_P2;Temp;Humidity;BMP_temperature;BMP_pressure;BME280_temperature;BME280_humidity;BME280_pressure;Samples;Min_cycle;Max_cycle;Signal;HPM_P1;HPM_P2
2023/12/11 00:03:04;;;;;;;4.10;2.40;;;7.20;99.90;;;7.70;100.00;97001.63;10371509;28;20288;-67
2023/12/11 00:08:07;;;;;;;2.77;1.87;;;7.20;99.90;;;7.72;100.00;96996.59;10370588;28;20234;-69
2023/12/11 00:13:12;;;;;;;2.13;1.93;;;7.30;99.90;;;7.88;100.00;96996.63;10373790;28;20232;-70
2023/12/11 00:18:15;;;;;;;2.83;2.40;;;7.30;99.90;;;7.87;100.00;96987.25;10369239;28;20694;-69
2023/12/11 00:23:18;;;;;;;2.00;1.90;;;7.40;99.90;;;7.79;100.00;96983.41;10374673;28;20238;-70
2023/12/11 00:28:23;;;;;;;2.03;1.92;;;7.40;99.90;;;7.79;100.00;96993.59;10378335;28;20222;-70
2023/12/11 00:33:26;;;;;;;2.83;2.20;;;7.40;99.90;;;7.77;100.00;96985.00;10367901;28;20769;-67
2023/12/11 00:38:29;;;;;;;3.33;2.05;;;7.30;99.90;;;7.81;100.00;96989.44;10366333;28;20798;-69
2023/12/11 00:43:34;;;;;;;2.00;1.90;;;7.40;99.90;;;7.88;100.00;96991.53;10370714;28;20701;-70
2023/12/11 00:48:48;;;;;;;2.47;2.20;;;7.40;99.90;;;7.94;100.00;96989.31;10368396;28;20226;-69
2023/12/11 00:53:51;;;;;;;1.98;1.60;;;7.50;99.90;;;7.94;100.00;96986.78;10375108;28;20713;-68
2023/12/11 00:58:56;;;;;;;1.85;1.70;;;7.50;99.90;;;8.00;100.00;96971.81;10370383;28;20308;-69
2023/12/11 01:03:59;;;;;;;2.07;1.90;;;7.60;99.90;;;8.08;100.00;96990.91;10370310;28;21447;-70
2023/12/11 01:09:02;;;;;;;1.77;1.67;;;7.60;99.90;;;8.09;100.00;96992.66;10375335;28;20249;-69
2023/12/11 01:14:07;;;;;;;2.08;1.90;;;7.60;99.90;;;8.14;100.00;96985.28;10378946;28;20907;-70
2023/12/11 01:19:10;;;;;;;2.70;1.60;;;7.60;99.90;;;8.29;100.00;96995.38;10376503;28;20238;-70
2023/12/11 01:24:13;;;;;;;2.70;2.03;;;7.80;99.90;;;8.32;100.00;97010.78;10372471;28;20229;-69
2023/12/11 01:29:18;;;;;;;1.67;1.58;;;7.80;99.90;;;8.55;100.00;96989.97;10369628;28;20233;-70
2023/12/11 01:34:21;;;;;;;1.92;1.83;;;7.90;99.90;;;8.45;100.00;96992.84;10378011;28;20224;-70
2023/12/11 01:39:24;;;;;;;1.70;1.60;;;7.90;99.90;;;8.59;100.00;97000.34;10368184;28;20242;-69
2023/12/11 01:44:30;;;;;;;3.65;1.67;;;8.10;99.90;;;8.55;100.00;97015.44;10369802;28;20225;-70
2023/12/11 01:49:33;;;;;;;2.17;1.60;;;8.10;99.90;;;8.59;100.00;97007.97;10376223;28;20708;-68
2023/12/11 01:54:38;;;;;;;1.75;1.60;;;8.10;99.90;;;8.53;100.00;97022.13;10378418;28;20226;-69
2023/12/11 01:59:44;;;;;;;3.33;2.20;;;8.10;99.90;;;8.47;100.00;97032.00;10378174;28;20236;-68
2023/12/11 02:04:53;;;;;;;2.78;1.52;;;8.10;99.90;;;8.61;100.00;97024.19;10372124;28;20229;-70
2023/12/11 02:09:57;;;;;;;1.90;1.77;;;8.10;99.90;;;8.62;100.00;97028.50;10373502;28;20234;-68
2023/12/11 02:15:01;;;;;;;1.70;1.60;;;8.20;99.90;;;8.63;100.00;97014.94;10376487;28;21000;-68
2023/12/11 02:20:06;;;;;;;3.28;1.90;;;8.20;99.90;;;8.66;100.00;97008.34;10373613;28;20310;-68
2023/12/11 02:25:09;;;;;;;2.20;1.85;;;8.10;99.90;;;8.60;100.00;97002.06;10362984;28;20230;-68
2023/12/11 02:30:14;;;;;;;2.08;1.98;;;8.10;99.90;;;8.62;100.00;97006.44;10366114;28;20308;-68
2023/12/11 02:35:17;;;;;;;2.17;1.63;;;8.10;99.90;;;8.69;100.00;96998.31;10365931;28;20225;-69
2023/12/11 02:40:20;;;;;;;2.22;1.50;;;8.20;99.90;;;8.86;100.00;96999.13;10373115;28;20229;-71
2023/12/11 02:45:25;;;;;;;1.73;1.63;;;8.30;99.90;;;9.08;100.00;96987.47;10372084;28;20226;-68
2023/12/11 02:50:28;;;;;;;1.98;1.80;;;8.50;99.90;;;9.08;100.00;96972.16;10366097;28;20313;-68
2023/12/11 02:55:31;;;;;;;2.15;1.48;;;8.50;99.90;;;9.17;100.00;96981.13;10369788;28;20303;-70
2023/12/11 03:00:36;;;;;;;1.88;1.75;;;8.60;99.90;;;8.99;100.00;96982.78;10365415;28;20613;-70
2023/12/11 03:05:39;;;;;;;1.50;1.30;;;8.50;99.90;;;8.90;100.00;96988.31;10378877;28;20320;-67
2023/12/11 03:10:43;;;;;;;1.65;1.58;;;8.50;99.90;;;9.05;100.00;97000.06;10368760;28;20226;-68
2023/12/11 03:15:51;;;;;;;1.77;1.65;;;8.60;99.90;;;9.09;100.00;96986.66;10367761;28;20226;-69
2023/12/11 03:20:55;;;;;;;1.70;1.60;;;8.60;99.90;;;8.96;100.00;96978.41;10362865;28;20256;-68
2023/12/11 03:25:58;;;;;;;1.77;1.67;;;8.60;99.90;;;9.07;100.00;96984.03;10373693;28;20237;-68
2023/12/11 03:31:02;;;;;;;1.73;1.63;;;8.60;99.90;;;9.05;100.00;96977.13;10367357;28;20718;-69
2023/12/11 03:36:06;;;;;;;1.60;1.50;;;8.60;99.90;;;9.29;100.00;96968.09;10368334;28;20302;-68
2023/12/11 03:41:09;;;;;;;1.60;1.60;;;8.80;99.90;;;9.05;100.00;96966.94;10369959;28;20229;-69
2023/12/11 03:46:14;;;;;;;1.77;1.70;;;8.70;99.90;;;8.93;100.00;96973.19;10370960;28;20309;-69
2023/12/11 03:51:17;;;;;;;1.95;1.30;;;8.60;99.90;;;8.92;100.00;96966.31;10368040;28;20911;-69
2023/12/11 03:56:20;;;;;;;1.98;1.60;;;8.50;99.90;;;8.91;100.00;96968.81;10368515;28;20573;-69
2023/12/11 04:01:25;;;;;;;1.90;1.55;;;8.50;99.90;;;8.93;100.00;96957.88;10370131;28;20312;-69
2023/12/11 04:06:28;;;;;;;2.42;1.60;;;8.50;99.90;;;8.91;100.00;96948.41;10369159;28;20703;-69
2023/12/11 04:11:32;;;;;;;2.30;1.50;;;8.50;99.90;;;8.91;100.00;96949.28;10374490;28;20230;-69
2023/12/11 04:16:40;;;;;;;1.80;1.70;;;8.50;99.90;;;8.86;100.00;96935.44;10372389;28;20234;-68
2023/12/11 04:21:43;;;;;;;2.75;1.48;;;8.40;99.90;;;8.86;100.00;96937.97;10369161;28;20801;-68
2023/12/11 04:26:47;;;;;;;1.70;1.60;;;8.40;99.90;;;8.90;100.00;96919.50;10379098;28;20765;-68
2023/12/11 04:31:51;;;;;;;1.80;1.70;;;8.40;99.90;;;8.91;100.00;96918.69;10374421;28;20253;-68
2023/12/11 04:36:54;;;;;;;1.83;1.73;;;8.40;99.90;;;8.91;100.00;96916.16;10363708;28;20234;-69
2023/12/11 04:41:57;;;;;;;1.88;1.77;;;8.40;99.90;;;8.87;100.00;96926.13;10364095;28;20229;-69
2023/12/11 04:47:02;;;;;;;1.60;1.50;;;8.40;99.90;;;8.90;100.00;96937.34;10367417;28;20254;-69
2023/12/11 04:52:06;;;;;;;1.33;1.33;;;8.40;99.90;;;8.90;100.00;96950.09;10364451;28;20229;-69
2023/12/11 04:57:09;;;;;;;2.10;1.90;;;8.40;99.90;;;8.93;100.00;96962.13;10366894;28;20301;-69
2023/12/11 05:02:14;;;;;;;2.03;1.88;;;8.40;99.90;;;8.89;100.00;96978.03;10365566;28;20567;-68
2023/12/11 05:07:17;;;;;;;1.90;1.80;;;8.40;99.90;;;8.85;100.00;96948.13;10364788;28;20238;-69
2023/12/11 05:12:20;;;;;;;1.83;1.73;;;8.40;99.90;;;8.83;100.00;96937.84;10360494;28;20226;-69
2023/12/11 05:17:24;;;;;;;2.22;2.00;;;8.30;99.90;;;8.77;100.00;96935.88;10363919;28;20233;-69
2023/12/11 05:22:27;;;;;;;2.00;1.83;;;8.30;99.90;;;8.64;100.00;96925.00;10362412;28;20269;-67
2023/12/11 05:27:30;;;;;;;2.03;1.92;;;8.10;99.90;;;8.48;100.00;96925.94;10363448;28;20242;-66
2023/12/11 05:32:35;;;;;;;2.53;2.28;;;7.90;99.90;;;8.41;100.00;96949.31;10357712;28;20313;-66
2023/12/11 05:37:38;;;;;;;2.33;2.13;;;7.80;99.90;;;8.36;100.00;96951.63;10362350;28;20241;-66
2023/12/11 05:42:42;;;;;;;2.60;2.40;;;7.80;99.90;;;8.47;100.00;96945.44;10364870;28;20234;-67
2023/12/11 05:47:47;;;;;;;2.60;2.40;;;7.80;99.90;;;8.31;100.00;96917.41;10360651;28;20230;-67
2023/12/11 05:52:50;;;;;;;2.75;2.55;;;7.70;99.90;;;8.29;100.00;96924.09;10360387;28;20671;-66
2023/12/11 05:57:53;;;;;;;2.30;2.20;;;7.70;99.90;;;8.13;100.00;96902.97;10378857;28;20714;-65
2023/12/11 06:02:57;;;;;;;3.70;3.40;;;7.60;99.90;;;8.07;100.00;96889.94;10379100;28;20222;-65
2023/12/11 06:08:01;;;;;;;2.60;2.50;;;7.50;99.90;;;8.15;100.00;96925.06;10380002;28;20221;-66
2023/12/11 06:13:04;;;;;;;3.03;2.83;;;7.60;99.90;;;8.02;100.00;96932.06;10355451;28;20746;-67
2023/12/11 06:18:09;;;;;;;7.10;5.37;;;7.50;99.90;;;7.84;100.00;96942.19;10356063;28;20221;-66
2023/12/11 06:23:12;;;;;;;4.97;3.28;;;7.20;99.90;;;7.72;100.00;96920.28;10355541;28;20719;-65
2023/12/11 06:28:15;;;;;;;4.87;2.93;;;7.10;99.90;;;7.70;100.00;96914.25;10354127;28;20232;-64
2023/12/11 06:33:20;;;;;;;4.50;3.23;;;7.10;99.90;;;7.48;100.00;96918.19;10353418;28;20230;-65
2023/12/11 06:38:23;;;;;;;3.30;3.10;;;6.90;99.90;;;7.42;100.00;96922.97;10347966;28;20295;-66
2023/12/11 06:43:26;;;;;;;3.00;2.80;;;6.90;99.90;;;7.42;100.00;96930.59;10344505;28;20276;-66
2023/12/11 06:48:32;;;;;;;4.77;3.03;;;6.80;99.90;;;7.47;100.00;96924.09;10360092;28;20325;-65
2023/12/11 06:53:35;;;;;;;6.30;5.80;;;6.80;99.90;;;7.35;100.00;96898.00;10361355;28;20385;-65
2023/12/11 06:58:38;;;;;;;5.63;5.13;;;6.80;99.90;;;7.28;100.00;96879.00;10360428;28;20252;-66
2023/12/11 07:03:44;;;;;;;8.43;6.10;;;6.70;99.90;;;7.26;100.00;96889.88;10358647;28;20230;-67
2023/12/11 07:08:48;;;;;;;13.67;10.63;;;6.70;99.90;;;7.17;100.00;96902.97;10360501;28;20230;-67
2023/12/11 07:13:51;;;;;;;8.03;6.53;;;6.70;99.90;;;7.15;100.00;96900.34;10350948;28;20222;-66
2023/12/11 07:18:56;;;;;;;15.03;10.13;;;6.50;99.90;;;6.95;100.00;96903.44;10351406;28;20521;-67
2023/12/11 07:23:59;;;;;;;13.07;9.50;;;6.40;99.90;;;7.00;100.00;96892.75;10359164;28;20273;-67
2023/12/11 07:29:04;;;;;;;12.83;9.60;;;6.50;99.90;;;7.04;100.00;96892.91;10356598;28;20242;-68
2023/12/11 07:34:08;;;;;;;12.73;11.40;;;6.50;99.90;;;7.05;100.00;96880.31;10366703;28;20218;-67
2023/12/11 07:39:11;;;;;;;15.40;13.90;;;6.50;99.90;;;7.06;100.00;96879.50;10357182;28;20296;-66
2023/12/11 07:44:15;;;;;;;7.57;6.97;;;6.50;99.90;;;7.12;100.00;96881.50;10361207;28;20226;-67
2023/12/11 07:49:19;;;;;;;6.73;6.17;;;6.60;99.90;;;7.14;100.00;96872.31;10358693;28;20691;-66
2023/12/11 07:54:23;;;;;;;5.53;4.93;;;6.60;99.90;;;7.16;100.00;96869.06;10354689;28;20289;-68
2023/12/11 07:59:26;;;;;;;5.20;4.80;;;6.60;99.90;;;7.19;100.00;96869.22;10357265;28;20269;-67
2023/12/11 08:04:30;;;;;;;5.43;4.93;;;6.60;99.90;;;7.21;100.00;96857.47;10356364;28;20618;-67
2023/12/11 08:09:37;;;;;;;3.60;3.30;;;6.60;99.90;;;7.24;100.00;96864.41;10355349;28;20245;-67
2023/12/11 08:14:40;;;;;;;2.93;2.73;;;6.60;99.90;;;7.16;100.00;96874.13;10360557;28;20248;-67
2023/12/11 08:19:44;;;;;;;2.73;2.63;;;6.50;99.90;;;7.08;100.00;96895.72;10356711;28;20245;-67
2023/12/11 08:24:48;;;;;;;5.00;4.60;;;6.40;99.90;;;7.10;100.00;96917.00;10355373;28;20237;-67
2023/12/11 08:29:51;;;;;;;5.73;5.23;;;6.50;99.90;;;7.30;100.00;96928.25;10357103;28;20312;-67
2023/12/11 08:34:56;;;;;;;5.10;4.70;;;6.70;99.90;;;7.40;100.00;96916.91;10358935;28;20673;-69
2023/12/11 08:39:59;;;;;;;5.00;4.53;;;6.80;99.90;;;7.53;100.00;96911.69;10352267;28;20233;-67
2023/12/11 08:45:02;;;;;;;5.30;4.90;;;6.90;99.90;;;7.61;100.00;96901.91;10357278;28;20226;-67
2023/12/11 08:50:08;;;;;;;5.10;4.70;;;7.00;99.90;;;7.60;100.00;96890.88;10356872;28;20234;-67
2023/12/11 08:55:12;;;;;;;5.87;5.27;;;7.10;99.90;;;7.72;100.00;96897.41;10358550;28;20238;-67
2023/12/11 09:00:16;;;;;;;6.73;6.13;;;7.10;99.90;;;7.81;100.00;96903.84;10357118;28;20329;-67
2023/12/11 09:05:21;;;;;;;7.18;6.32;;;7.20;99.90;;;7.78;100.00;96901.13;10359236;28;20235;-67
2023/12/11 09:10:24;;;;;;;8.13;6.95;;;7.20;99.90;;;7.92;100.00;96894.22;10358479;28;20238;-68
2023/12/11 09:15:28;;;;;;;13.05;11.73;;;7.30;99.90;;;8.09;100.00;96911.22;10360392;28;20305;-64
2023/12/11 09:20:32;;;;;;;10.73;9.70;;;7.50;99.90;;;8.21;100.00;96899.91;10351897;28;20313;-65
2023/12/11 09:25:36;;;;;;;8.57;7.78;;;7.60;99.90;;;8.41;100.00;96898.41;10351298;28;20983;-68
2023/12/11 09:30:39;;;;;;;10.90;9.27;;;7.90;99.90;;;8.61;100.00;96902.78;10354173;28;20609;-68
2023/12/11 09:35:44;;;;;;;12.40;10.73;;;8.00;99.90;;;8.61;100.00;96901.91;10354768;28;20226;-65
2023/12/11 09:40:47;;;;;;;11.48;9.80;;;7.90;99.90;;;8.50;100.00;96915.03;10353674;28;20683;-68
2023/12/11 09:45:52;;;;;;;4.32;3.80;;;7.90;99.90;;;8.75;100.00;96914.53;10350561;28;20230;-67
2023/12/11 09:50:57;;;;;;;3.33;2.60;;;8.10;99.90;;;9.12;100.00;96897.59;10352254;28;20723;-66
2023/12/11 09:56:00;;;;;;;3.22;2.90;;;8.40;99.90;;;9.20;100.00;96896.25;10353348;28;20599;-67
2023/12/11 10:01:04;;;;;;;2.63;2.42;;;8.60;99.90;;;9.32;100.00;96886.63;10353621;28;20226;-68
2023/12/11 10:06:10;;;;;;;2.53;2.33;;;8.80;99.90;;;9.48;100.00;96889.09;10351667;28;20230;-69
2023/12/11 10:11:15;;;;;;;2.65;2.45;;;8.90;99.90;;;9.70;100.00;96879.84;10356589;28;20249;-72
2023/12/11 10:16:30;;;;;;;2.40;2.20;;;9.10;99.90;;;9.99;100.00;96867.50;10352557;28;20589;-68
2023/12/11 10:21:41;;;;;;;1.90;1.80;;;9.30;99.90;;;10.08;100.00;96901.06;10352598;28;20449;-67
2023/12/11 10:26:48;;;;;;;2.15;1.67;;;9.50;99.90;;;10.23;100.00;96878.72;10353377;28;21461;-66
2023/12/11 10:32:00;;;;;;;2.88;2.60;;;9.60;99.90;;;10.38;100.00;96879.41;10357852;28;20230;-66
2023/12/11 10:37:05;;;;;;;2.53;1.95;;;9.80;99.90;;;10.53;100.00;96878.28;10336803;28;20218;-65
2023/12/11 10:42:17;;;;;;;2.13;1.92;;;10.00;99.90;;;10.54;100.00;96869.84;10351846;28;20230;-68
2023/12/11 10:47:20;;;;;;;1.98;1.88;;;10.00;99.90;;;10.93;100.00;96867.13;10351685;28;20238;-68
2023/12/11 10:52:24;;;;;;;2.97;1.95;;;10.50;99.90;;;11.35;100.00;96854.25;10348279;28;20230;-68
2023/12/11 10:57:29;;;;;;;2.03;1.88;;;10.90;99.90;;;11.55;100.00;96843.06;10351341;28;20730;-68
2023/12/11 11:02:33;;;;;;;2.72;1.90;;;11.10;99.90;;;11.41;100.00;96846.78;10354182;28;20237;-67
2023/12/11 11:07:45;;;;;;;2.25;1.60;;;10.90;99.90;;;11.33;100.00;96863.53;10353112;28;20249;-67
2023/12/11 11:12:55;;;;;;;2.20;2.00;;;10.70;99.90;;;11.21;100.00;96872.50;10348412;28;20301;-67
2023/12/11 11:18:00;;;;;;;3.38;2.30;;;10.60;99.90;;;11.14;100.00;96869.66;10352768;28;20229;-68
2023/12/11 11:23:26;;;;;;;4.30;2.20;;;10.50;99.90;;;11.01;100.00;96852.94;10350886;28;20226;-68
2023/12/11 11:28:41;;;;;;;1.90;1.80;;;10.50;99.90;;;11.10;100.00;96858.41;10351195;28;20234;-67
2023/12/11 11:33:47;;;;;;;4.25;2.03;;;10.50;99.90;;;11.21;100.00;96853.72;10346321;28;20308;-66
2023/12/11 11:38:57;;;;;;;3.30;2.13;;;10.60;99.90;;;11.12;100.00;96850.81;10349057;28;20234;-69
2023/12/11 11:44:06;;;;;;;3.28;2.03;;;10.50;99.90;;;11.05;100.00;96854.84;10352148;28;20223;-68
2023/12/11 11:49:10;;;;;;;3.60;3.25;;;10.40;99.90;;;11.15;100.00;96851.78;10355816;28;20222;-67
2023/12/11 11:54:14;;;;;;;3.75;2.17;;;10.50;99.90;;;11.25;100.00;96846.22;10354891;28;20254;-68
2023/12/11 11:59:18;;;;;;;2.10;1.90;;;10.60;99.90;;;11.33;100.00;96861.88;10352163;28;20252;-68
2023/12/11 12:04:33;;;;;;;3.15;2.13;;;10.60;99.90;;;11.15;100.00;96856.03;10352918;28;20229;-65
2023/12/11 12:09:38;;;;;;;2.33;2.00;;;10.60;99.90;;;11.16;100.00;96863.78;10359113;28;20237;-67
2023/12/11 12:14:42;;;;;;;2.28;1.83;;;10.50;99.90;;;11.34;100.00;96860.19;10357021;28;20245;-66
2023/12/11 12:19:45;;;;;;;2.33;2.00;;;10.60;99.90;;;11.40;100.00;96865.53;10359655;28;20234;-67
2023/12/11 12:24:51;;;;;;;2.60;1.92;;;10.80;99.90;;;11.32;99.62;96884.84;10355063;28;20269;-67
2023/12/11 12:29:55;;;;;;;2.47;1.90;;;10.80;99.90;;;11.27;100.00;96890.66;10359277;28;20702;-68
2023/12/11 12:34:58;;;;;;;2.67;2.47;;;10.70;99.90;;;11.28;100.00;96892.38;10356214;28;20260;-69
2023/12/11 12:40:06;;;;;;;2.85;1.83;;;10.70;99.90;;;11.56;97.23;96885.78;10351501;28;20243;-69
2023/12/11 12:45:11;;;;;;;2.95;2.30;;;11.00;99.90;;;11.75;91.97;96874.50;10341405;28;20222;-68
2023/12/11 12:50:24;;;;;;;4.05;2.28;;;11.20;99.90;;;11.81;90.46;96876.41;10359332;28;20226;-68
2023/12/11 12:55:30;;;;;;;4.32;2.50;;;11.40;99.90;;;12.01;82.20;96880.59;10356079;28;20599;-66
2023/12/11 13:00:34;;;;;;;5.15;2.30;;;11.60;99.90;;;11.94;80.46;96881.19;10356791;28;20836;-68
2023/12/11 13:05:42;;;;;;;5.68;2.38;;;11.50;99.90;;;12.00;81.54;96883.13;10357293;28;20305;-69
2023/12/11 13:11:06;;;;;;;5.07;2.33;;;11.40;99.90;;;12.00;81.28;96878.84;10353467;28;20234;-68
2023/12/11 13:16:09;;;;;;;6.65;2.40;;;11.40;99.90;;;12.04;77.85;96890.94;10366732;28;20245;-68
2023/12/11 13:21:12;;;;;;;3.42;2.10;;;11.40;99.90;;;12.04;79.34;96885.81;10356305;28;20226;-69
2023/12/11 13:26:17;;;;;;;5.20;2.15;;;11.40;99.90;;;12.12;75.49;96889.53;10354901;28;20656;-69
2023/12/11 13:31:20;;;;;;;6.47;2.40;;;11.50;99.90;;;12.05;77.01;96897.81;10355780;28;20317;-68
2023/12/11 13:36:24;;;;;;;5.35;2.80;;;11.40;99.90;;;12.15;75.44;96899.00;10351053;28;20318;-68
2023/12/11 13:41:28;;;;;;;5.25;2.30;;;11.50;99.90;;;11.89;78.48;96910.88;10353927;28;20237;-67
2023/12/11 13:46:31;;;;;;;5.30;2.28;;;11.30;99.90;;;11.67;81.49;96910.03;10354009;28;20238;-69
2023/12/11 13:51:34;;;;;;;7.72;2.63;;;11.10;99.90;;;11.75;83.52;96891.56;10353077;28;20325;-69
2023/12/11 13:56:39;;;;;;;6.20;3.00;;;11.10;99.90;;;11.59;85.33;96908.91;10353895;28;20238;-69
2023/12/11 14:01:42;;;;;;;6.28;2.63;;;11.00;99.90;;;11.56;85.76;96921.59;10352803;28;20236;-69
2023/12/11 14:06:45;;;;;;;9.13;3.10;;;10.90;99.90;;;11.64;80.22;96930.41;10352336;28;20222;-68
2023/12/11 14:11:52;;;;;;;5.38;2.75;;;10.90;99.90;;;11.49;80.68;96937.53;10352178;28;20230;-68
2023/12/11 14:16:56;;;;;;;7.85;3.67;;;10.90;99.90;;;11.28;80.21;96932.44;10356951;28;20226;-68
2023/12/11 14:21:59;;;;;;;17.75;9.30;;;10.70;99.90;;;11.48;76.97;96938.34;10352640;28;20257;-69
2023/12/11 14:27:04;;;;;;;10.07;5.82;;;10.80;99.90;;;11.39;75.95;96953.31;10351135;28;20653;-69
2023/12/11 14:32:07;;;;;;;8.48;7.20;;;10.80;99.90;;;11.17;79.22;96954.19;10356753;28;20321;-68
2023/12/11 14:37:13;;;;;;;26.33;16.30;;;10.60;99.90;;;11.16;80.08;96966.09;10350716;28;20226;-68
2023/12/11 14:42:19;;;;;;;14.27;9.05;;;10.60;99.90;;;11.24;79.80;96974.91;10352350;28;20227;-68
2023/12/11 14:47:24;;;;;;;12.77;7.38;;;10.60;99.90;;;11.12;80.86;96989.78;10354812;28;20272;-68
2023/12/11 14:52:28;;;;;;;15.10;8.93;;;10.50;99.90;;;11.01;81.27;96988.47;10352773;28;20226;-69
2023/12/11 14:57:32;;;;;;;13.00;5.72;;;10.40;99.90;;;10.82;82.29;97000.50;10355912;28;20297;-69
2023/12/11 15:02:36;;;;;;;11.40;5.15;;;10.20;99.90;;;10.81;82.10;97008.97;10356685;28;20223;-68
2023/12/11 15:07:40;;;;;;;8.35;4.50;;;10.10;99.90;;;10.56;83.62;97024.09;10352874;28;20283;-68
2023/12/11 15:12:44;;;;;;;8.07;3.55;;;9.90;99.90;;;10.32;85.08;97017.06;10361439;28;20328;-67
2023/12/11 15:17:48;;;;;;;8.77;3.80;;;9.70;99.90;;;10.26;85.59;97032.09;10354438;28;20223;-69
2023/12/11 15:22:51;;;;;;;7.50;3.45;;;9.60;99.90;;;10.18;86.34;97035.97;10349728;28;20264;-68
2023/12/11 15:27:55;;;;;;;9.07;3.85;;;9.50;99.90;;;10.05;86.61;97052.44;10356556;28;20321;-70
2023/12/11 15:32:59;;;;;;;6.90;3.80;;;9.40;99.90;;;9.93;86.59;97068.06;10354184;28;21034;-69
2023/12/11 15:38:02;;;;;;;10.45;3.92;;;9.20;99.90;;;9.89;86.47;97075.50;10354182;28;20313;-67
2023/12/11 15:43:07;;;;;;;8.15;4.25;;;9.20;99.90;;;9.78;88.00;97090.28;10361313;28;20222;-69
2023/12/11 15:48:10;;;;;;;9.70;3.63;;;9.10;99.90;;;9.87;85.51;97083.09;10359382;28;20250;-69
2023/12/11 15:53:26;;;;;;;6.95;3.40;;;9.30;99.90;;;9.73;86.86;97088.31;10353484;28;20231;-70
2023/12/11 15:58:31;;;;;;;10.88;3.63;;;9.10;99.90;;;9.70;85.14;97099.28;10355691;28;20325;-69
2023/12/11 16:03:34;;;;;;;9.38;4.07;;;9.20;99.90;;;9.60;85.64;97102.19;10356716;28;20284;-67
2023/12/11 16:08:37;;;;;;;10.88;3.28;;;9.00;99.90;;;9.59;86.21;97103.88;10354467;28;20233;-67
2023/12/11 16:13:42;;;;;;;9.30;3.97;;;8.90;99.90;;;9.44;86.76;97119.31;10358926;28;20214;-65
2023/12/11 16:18:47;;;;;;;11.27;5.78;;;8.80;99.90;;;9.37;87.98;97135.09;10358376;28;20248;-68
2023/12/11 16:23:51;;;;;;;15.25;4.88;;;8.70;99.90;;;9.34;87.51;97136.63;10357624;28;20229;-68
2023/12/11 16:28:55;;;;;;;7.85;4.10;;;8.70;99.90;;;9.47;87.19;97136.41;10355628;28;20262;-68
2023/12/11 16:33:59;;;;;;;10.35;4.22;;;8.70;99.90;;;9.29;89.25;97145.72;10356067;28;20229;-68
2023/12/11 16:39:03;;;;;;;8.63;3.92;;;8.60;99.90;;;9.35;89.08;97151.97;10350301;28;20226;-69
2023/12/11 16:44:07;;;;;;;12.35;6.35;;;8.60;99.90;;;9.31;88.74;97152.63;10355139;28;20234;-68
2023/12/11 16:49:10;;;;;;;13.20;6.40;;;8.60;99.90;;;9.38;87.50;97158.91;10355137;28;20586;-69
2023/12/11 16:54:14;;;;;;;13.60;4.05;;;8.70;99.90;;;9.59;86.13;97166.78;10353651;28;20230;-69
2023/12/11 16:59:18;;;;;;;9.07;4.10;;;8.80;99.90;;;9.43;87.32;97176.19;10355059;28;20610;-69
2023/12/11 17:04:21;;;;;;;14.52;5.45;;;8.80;99.90;;;9.56;86.28;97176.84;10356825;28;20706;-69
2023/12/11 17:09:24;;;;;;;10.75;4.60;;;8.90;99.90;;;9.56;87.00;97166.63;10355354;28;20262;-69
2023/12/11 17:14:29;;;;;;;10.65;3.92;;;8.80;99.90;;;9.62;86.28;97174.59;10358365;28;20230;-70
2023/12/11 17:19:32;;;;;;;10.18;3.83;;;9.00;99.90;;;9.69;85.85;97179.16;10361553;28;20245;-68
2023/12/11 17:24:38;;;;;;;11.90;3.80;;;9.00;99.90;;;9.70;85.64;97180.94;10358220;28;20214;-69
2023/12/11 17:29:42;;;;;;;10.02;3.75;;;9.00;99.90;;;9.81;84.67;97172.09;10359743;28;20724;-71
2023/12/11 17:34:45;;;;;;;8.43;3.85;;;9.10;99.90;;;9.77;84.55;97184.66;10359047;28;20236;-67
2023/12/11 17:39:49;;;;;;;10.23;3.85;;;9.10;99.90;;;9.79;84.38;97193.28;10360738;28;20237;-68
2023/12/11 17:44:53;;;;;;;12.23;4.28;;;9.20;99.90;;;9.70;84.81;97201.34;10360336;28;20234;-69
2023/12/11 17:49:56;;;;;;;13.82;5.43;;;9.10;99.90;;;9.75;84.21;97199.88;10360882;28;20237;-69
2023/12/11 17:55:00;;;;;;;11.93;6.80;;;9.10;99.90;;;9.86;83.98;97197.88;10361389;28;20245;-68
2023/12/11 18:00:06;;;;;;;14.07;6.10;;;9.10;99.90;;;9.84;84.81;97200.34;10364868;28;20234;-67
2023/12/11 18:05:10;;;;;;;12.80;4.80;;;9.20;99.90;;;9.71;85.88;97208.19;10364278;28;20226;-67
2023/12/11 18:10:17;;;;;;;11.98;5.35;;;9.00;99.90;;;9.58;85.88;97211.81;10363652;28;20230;-69
2023/12/11 18:15:21;;;;;;;8.77;4.22;;;8.90;99.90;;;9.58;86.70;97209.25;10359369;28;20304;-68
2023/12/11 18:20:24;;;;;;;10.38;4.40;;;8.90;99.90;;;9.64;86.21;97213.78;10363164;28;20321;-69
2023/12/11 18:25:27;;;;;;;9.77;3.83;;;9.00;99.90;;;9.75;86.17;97220.28;10370839;28;20773;-68
2023/12/11 18:30:32;;;;;;;10.57;4.63;;;9.00;99.90;;;9.78;85.54;97225.56;10364868;28;20245;-68
2023/12/11 18:35:35;;;;;;;15.13;4.50;;;9.10;99.90;;;9.61;86.33;97237.47;10365266;28;20758;-70
2023/12/11 18:40:39;;;;;;;9.80;3.78;;;9.00;99.90;;;9.59;87.38;97248.41;10368279;28;20722;-69
2023/12/11 18:45:44;;;;;;;10.65;4.78;;;9.00;99.90;;;9.69;86.40;97258.28;10367080;28;20607;-69
2023/12/11 18:50:47;;;;;;;9.65;3.97;;;8.90;99.90;;;9.66;86.13;97270.88;10366120;28;20462;-69
2023/12/11 18:55:50;;;;;;;9.60;4.70;;;9.00;99.90;;;9.70;85.74;97272.81;10370884;28;20834;-68
2023/12/11 19:01:05;;;;;;;11.13;5.30;;;9.00;99.90;;;9.85;83.95;97273.56;10355875;28;20619;-67
2023/12/11 19:06:09;;;;;;;11.60;5.13;;;9.10;99.90;;;9.83;83.33;97289.59;10357452;28;20230;-68
2023/12/11 19:11:13;;;;;;;10.30;4.60;;;9.20;99.90;;;9.61;85.20;97298.69;10364010;28;20229;-67
2023/12/11 19:16:17;;;;;;;10.27;4.30;;;9.00;99.90;;;9.81;83.36;97303.94;10355766;28;20230;-68
2023/12/11 19:21:21;;;;;;;9.20;4.45;;;9.10;99.90;;;9.82;83.57;97316.81;10365904;28;20222;-68
2023/12/11 19:26:24;;;;;;;11.70;4.93;;;9.10;99.90;;;9.65;85.32;97317.63;10372636;28;20308;-66
2023/12/11 19:31:28;;;;;;;10.50;4.85;;;9.00;99.90;;;9.71;86.45;97323.03;10372485;28;20240;-68
2023/12/11 19:36:31;;;;;;;9.10;4.55;;;8.90;99.90;;;9.57;86.18;97316.34;10363305;28;20233;-68
2023/12/11 19:41:35;;;;;;;12.30;5.05;;;8.90;99.90;;;9.45;86.94;97330.19;10371818;28;20231;-68
2023/12/11 19:46:45;;;;;;;12.27;4.22;;;8.80;99.90;;;9.62;85.86;97331.09;10366815;28;20353;-68
2023/12/11 19:51:48;;;;;;;8.60;4.28;;;8.90;99.90;;;9.64;86.73;97339.72;10370346;28;20615;-68
2023/12/11 19:56:51;;;;;;;11.68;4.50;;;8.90;99.90;;;9.41;88.65;97341.06;10375233;28;20582;-68
2023/12/11 20:01:56;;;;;;;10.80;5.07;;;8.80;99.90;;;9.47;88.44;97366.88;10373757;28;20229;-69
2023/12/11 20:06:59;;;;;;;13.35;5.00;;;8.80;99.90;;;9.39;89.34;97363.03;10368553;28;20237;-68
2023/12/11 20:12:03;;;;;;;10.35;5.18;;;8.80;99.90;;;9.47;88.96;97355.78;10370931;28;20230;-68
2023/12/11 20:17:19;;;;;;;12.50;5.93;;;8.80;99.90;;;9.53;88.79;97360.31;10361419;28;20225;-68
2023/12/11 20:22:24;;;;;;;15.25;6.28;;;8.80;99.90;;;9.71;86.60;97356.19;10367697;28;20230;-70
2023/12/11 20:27:27;;;;;;;47.35;23.80;;;9.00;99.90;;;9.76;86.35;97354.78;10362865;28;20237;-67
2023/12/11 20:32:34;;;;;;;35.10;17.98;;;9.00;99.90;;;9.74;85.59;97361.47;10364810;28;20643;-68
2023/12/11 20:37:37;;;;;;;23.13;12.75;;;9.00;99.90;;;9.64;87.18;97349.00;10363934;28;20626;-68
2023/12/11 20:42:41;;;;;;;23.27;15.13;;;9.00;99.90;;;9.54;87.14;97352.78;10362825;28;20257;-67
2023/12/11 20:47:48;;;;;;;21.02;13.27;;;8.90;99.90;;;9.45;87.85;97362.50;10371668;28;20234;-67
2023/12/11 20:52:52;;;;;;;11.77;6.25;;;8.80;99.90;;;9.43;89.15;97372.59;10367178;28;20597;-68
2023/12/11 20:57:55;;;;;;;8.38;5.85;;;8.80;99.90;;;9.41;89.87;97374.22;10377588;28;20303;-68
2023/12/11 21:03:01;;;;;;;13.85;6.82;;;8.70;99.90;;;9.39;90.13;97377.47;10365095;28;20265;-72
2023/12/11 21:08:06;;;;;;;11.85;6.82;;;8.70;99.90;;;9.39;90.74;97378.34;10368017;28;20230;-69
2023/12/11 21:13:10;;;;;;;14.77;6.80;;;8.70;99.90;;;9.37;90.16;97390.13;10364190;28;20356;-67
2023/12/11 21:18:14;;;;;;;11.85;5.63;;;8.70;99.90;;;9.46;89.71;97388.06;10362819;28;20234;-69